createdAt,value
2023-02-24T00:00:03.272Z,100
2023-02-24T00:05:02.887Z,98.69
2023-02-24T00:10:02.674Z,97.68
2023-02-24T00:15:03.447Z,98.75
2023-02-24T00:20:02.540Z,99.77
2023-02-24T00:25:03.459Z,100
2023-02-24T00:30:03.378Z,100
2023-02-24T00:35:03.318Z,100
2023-02-24T00:40:02.906Z,100
2023-02-24T00:45:02.667Z,100
2023-02-24T00:50:03.396Z,100
2023-02-24T00:55:03.100Z,100
2023-02-24T01:00:03.071Z,100
2023-02-24T01:05:03.409Z,100
2023-02-24T01:10:03.054Z,100
2023-02-24T01:15:02.874Z,100
2023-02-24T01:20:02.701Z,100
2023-02-24T01:25:03.624Z,100
2023-02-24T01:30:03.264Z,100
2023-02-24T01:35:03.012Z,100
2023-02-24T01:40:02.728Z,100
2023-02-24T01:45:03.528Z,100
2023-02-24T01:50:03.309Z,100
2023-02-24T01:55:03.725Z,100
2023-02-24T02:00:02.964Z,100
2023-02-24T02:05:02.552Z,100
2023-02-24T02:10:03.294Z,100
2023-02-24T02:15:03.651Z,100
2023-02-24T02:20:03.247Z,100
2023-02-24T02:25:02.986Z,100
2023-02-24T02:30:03.400Z,100
2023-02-24T02:35:03.057Z,100
2023-02-24T02:40:02.897Z,100
2023-02-24T02:45:02.808Z,100
2023-02-24T02:50:03.460Z,100
2023-02-24T02:55:03.571Z,100
2023-02-24T03:00:03.055Z,100
2023-02-24T03:05:03.264Z,100
2023-02-24T03:10:02.860Z,100
2023-02-24T03:15:03.514Z,100
2023-02-24T03:20:03.303Z,98.26
2023-02-24T03:25:03.053Z,96.9
2023-02-24T03:30:02.740Z,93.02
2023-02-24T03:35:02.430Z,91.14
2023-02-24T03:40:02.551Z,90.12
2023-02-24T03:45:02.743Z,90.59
2023-02-24T03:50:03.366Z,91.72
2023-02-24T03:55:03.224Z,91.44
2023-02-24T04:00:03.228Z,90.86
2023-02-24T04:05:03.294Z,91.58
2023-02-24T04:10:02.693Z,90.45
2023-02-24T04:15:03.450Z,90.56
2023-02-24T04:20:03.294Z,90.98
2023-02-24T04:25:02.947Z,91.6
2023-02-24T04:30:02.682Z,92.46
2023-02-24T04:35:02.514Z,93.61
2023-02-24T04:40:03.253Z,93.62
2023-02-24T04:45:03.315Z,95.77
2023-02-24T04:50:02.965Z,93.53
2023-02-24T04:55:03.435Z,92.17
2023-02-24T05:00:03.492Z,92.79
2023-02-24T05:05:03.234Z,94.55
2023-02-24T05:10:03.318Z,93.37
2023-02-24T05:15:03.150Z,93.27
2023-02-24T05:20:02.871Z,94.42
2023-02-24T05:25:02.600Z,95.54
2023-02-24T05:30:03.364Z,96
2023-02-24T05:35:03.116Z,97.31
2023-02-24T05:40:03.269Z,97.64
2023-02-24T05:45:02.996Z,97.22
2023-02-24T05:50:02.633Z,98.06
2023-02-24T05:55:03.537Z,98.71
2023-02-24T06:00:03.144Z,97.91
2023-02-24T06:05:02.803Z,98.07
2023-02-24T06:10:02.505Z,98.18
2023-02-24T06:15:03.154Z,97.34
2023-02-24T06:20:03.017Z,97.84
2023-02-24T06:25:02.870Z,96.75
2023-02-24T06:30:02.709Z,96.34
2023-02-24T06:35:02.827Z,97.58
2023-02-24T06:40:02.598Z,96.66
2023-02-24T06:45:02.666Z,95.73
2023-02-24T06:50:03.378Z,97.17
2023-02-24T06:55:03.751Z,94.84
2023-02-24T07:00:02.850Z,94.74
2023-02-24T07:05:02.547Z,95.54
2023-02-24T07:10:03.260Z,94.86
2023-02-24T07:15:02.997Z,93.88
2023-02-24T07:20:02.781Z,92.91
2023-02-24T07:25:03.463Z,92.65
2023-02-24T07:30:03.266Z,90.57
2023-02-24T07:35:03.345Z,92.61
2023-02-24T07:40:02.900Z,93.28
2023-02-24T07:45:02.885Z,94.04
2023-02-24T07:50:03.346Z,92.3
2023-02-24T07:55:03.670Z,93.3
2023-02-24T08:00:02.823Z,92.36
2023-02-24T08:05:02.615Z,93.08
2023-02-24T08:10:02.832Z,91.26
2023-02-24T08:15:02.384Z,88.83
2023-02-24T08:20:03.359Z,92.01
2023-02-24T08:25:03.041Z,89.76
2023-02-24T08:30:02.808Z,89.45
2023-02-24T08:35:03.488Z,88.94
2023-02-24T08:40:03.299Z,87.93
2023-02-24T08:45:03.370Z,87.86
2023-02-24T08:50:03.064Z,86.84
2023-02-24T08:55:03.198Z,85.46
2023-02-24T09:00:02.608Z,86.68
2023-02-24T09:05:03.624Z,83.95
2023-02-24T09:10:03.126Z,84.25
2023-02-24T09:15:03.018Z,85.18
2023-02-24T09:20:03.084Z,85.87
2023-02-24T09:25:02.630Z,86.26
2023-02-24T09:30:03.349Z,85.77
2023-02-24T09:35:03.208Z,86.41
2023-02-24T09:40:02.893Z,85.72
2023-02-24T09:45:02.613Z,86.8
2023-02-24T09:50:03.317Z,86.21
2023-02-24T09:55:03.358Z,85.64
2023-02-24T10:00:02.815Z,86.56
2023-02-24T10:05:02.525Z,86.12
2023-02-24T10:10:03.270Z,88.86
2023-02-24T10:15:03.166Z,85.06
2023-02-24T10:20:02.880Z,86.57
2023-02-24T10:25:02.804Z,86.33
2023-02-24T10:30:02.981Z,86.54
2023-02-24T10:35:02.998Z,85.85
2023-02-24T10:40:03.096Z,85.1
2023-02-24T10:45:09.659Z,83.56
2023-02-24T10:50:02.736Z,84.35
2023-02-24T10:55:04.033Z,84.38
2023-02-24T11:00:03.309Z,85.44
2023-02-24T11:05:03.180Z,83.13
2023-02-24T11:10:03.199Z,83.27
2023-02-24T11:15:02.814Z,85.58
2023-02-24T11:20:02.654Z,85.04
2023-02-24T11:25:03.307Z,83.41
2023-02-24T11:30:03.066Z,84.14
2023-02-24T11:35:02.790Z,83.74
2023-02-24T11:40:03.477Z,84.34
2023-02-24T11:45:03.551Z,83.76
2023-02-24T11:50:05.530Z,83.38
2023-02-24T11:55:04.051Z,82.23
2023-02-24T12:00:03.122Z,82.57
2023-02-24T12:05:03.080Z,80.81
2023-02-24T12:10:18.197Z,83.14
2023-02-24T12:15:02.966Z,83.29
2023-02-24T12:20:02.956Z,82.68
2023-02-24T12:25:02.530Z,86.69
2023-02-24T12:30:03.364Z,90.04
2023-02-24T12:35:03.017Z,92.7
2023-02-24T12:40:02.708Z,97.32
2023-02-24T12:45:03.515Z,98.87
2023-02-24T12:50:02.584Z,99.21
2023-02-24T12:55:03.542Z,100
2023-02-24T13:00:02.271Z,100
2023-02-24T13:05:03.380Z,100
2023-02-24T13:10:03.373Z,100
2023-02-24T13:15:02.938Z,100
2023-02-24T13:20:03.156Z,100
2023-02-24T13:25:03.062Z,100
2023-02-24T13:35:03.123Z,100
2023-02-24T13:40:03.166Z,100
2023-02-24T13:45:02.881Z,100
2023-02-24T13:50:02.614Z,100
2023-02-24T13:55:03.555Z,100
2023-02-24T14:00:03.578Z,100
2023-02-24T14:05:03.046Z,100
2023-02-24T14:10:02.733Z,100
2023-02-24T14:15:02.454Z,100
2023-02-24T14:20:03.450Z,100
2023-02-24T14:25:03.456Z,100
2023-02-24T14:30:03.217Z,100
2023-02-24T14:35:02.870Z,100
2023-02-24T14:40:02.801Z,100
2023-02-24T14:45:03.524Z,100
2023-02-24T14:50:03.411Z,100
2023-02-24T14:55:03.740Z,100
2023-02-24T15:00:02.863Z,100
2023-02-24T15:05:03.469Z,100
2023-02-24T15:10:03.301Z,100
2023-02-24T15:15:02.931Z,100
2023-02-24T15:20:02.845Z,100
2023-02-24T15:25:03.409Z,100
2023-02-24T15:30:03.210Z,100
2023-02-24T15:35:02.965Z,100
2023-02-24T15:40:03.265Z,100
2023-02-24T15:45:03.537Z,100
2023-02-24T15:50:03.481Z,100
2023-02-24T15:55:03.352Z,100
2023-02-24T16:00:03.254Z,100
2023-02-24T16:05:02.667Z,100
2023-02-24T16:10:03.521Z,100
2023-02-24T16:15:03.489Z,100
2023-02-24T16:20:03.249Z,100
2023-02-24T16:25:03.138Z,100
2023-02-24T16:30:02.927Z,100
2023-02-24T16:35:02.761Z,100
2023-02-24T16:40:03.414Z,100
2023-02-24T16:45:03.193Z,100
2023-02-24T16:50:02.938Z,100
2023-02-24T16:55:03.007Z,100
2023-02-24T17:00:03.722Z,100
2023-02-24T17:05:03.229Z,100
2023-02-24T17:10:02.987Z,100
2023-02-24T17:15:02.792Z,100
2023-02-24T17:20:02.678Z,100
2023-02-24T17:25:02.591Z,100
2023-02-24T17:30:03.464Z,100
2023-02-24T17:35:03.435Z,100
2023-02-24T17:40:06.972Z,100
2023-02-24T17:45:02.748Z,100
2023-02-24T17:50:03.865Z,100
2023-02-24T17:55:03.338Z,100
2023-02-24T18:00:04.318Z,100
2023-02-24T18:05:03.084Z,100
2023-02-24T18:10:02.732Z,100
2023-02-24T18:15:09.940Z,100
2023-02-24T18:20:02.691Z,100
2023-02-24T18:25:02.299Z,100
2023-02-24T18:30:02.959Z,100
2023-02-24T18:35:03.146Z,100
2023-02-24T18:40:02.976Z,100
2023-02-24T18:45:02.839Z,100
2023-02-24T18:50:03.170Z,100
2023-02-24T18:55:03.431Z,100
2023-02-24T19:00:03.523Z,100
2023-02-24T19:05:03.232Z,100
2023-02-24T19:10:02.988Z,100
2023-02-24T19:15:02.700Z,100
2023-02-24T19:20:03.389Z,100
2023-02-24T19:25:02.569Z,100
2023-02-24T19:30:03.553Z,100
2023-02-24T19:35:03.367Z,100
2023-02-24T19:40:03.355Z,100
2023-02-24T19:45:03.141Z,100
2023-02-24T19:50:03.065Z,100
2023-02-24T19:55:03.125Z,100
2023-02-24T20:00:02.685Z,99.75
2023-02-24T20:05:03.763Z,99.62
2023-02-24T20:10:03.224Z,99.91
2023-02-24T20:15:03.039Z,100
2023-02-24T20:20:02.837Z,100
2023-02-24T20:25:02.575Z,99.33
2023-02-24T20:30:02.636Z,100
2023-02-24T20:35:03.556Z,100
2023-02-24T20:40:03.163Z,98.71
2023-02-24T20:45:03.154Z,99.9
2023-02-24T20:50:03.190Z,99.73
2023-02-24T20:55:03.282Z,100
2023-02-24T21:00:04.472Z,100
2023-02-24T21:05:03.995Z,100
2023-02-24T21:10:03.531Z,100
2023-02-24T21:20:02.492Z,100
2023-02-24T21:25:02.660Z,100
2023-02-24T21:30:02.730Z,100
2023-02-24T21:35:03.722Z,100
2023-02-24T21:40:03.332Z,100
2023-02-24T21:45:03.163Z,100
2023-02-24T21:50:03.424Z,100
2023-02-24T21:55:03.438Z,100
2023-02-24T22:00:03.067Z,100
2023-02-24T22:05:02.954Z,100
2023-02-24T22:10:02.979Z,100
2023-02-24T22:15:02.737Z,100
2023-02-24T22:20:02.490Z,100
2023-02-24T22:25:03.316Z,100
2023-02-24T22:30:03.272Z,100
2023-02-24T22:35:02.890Z,100
2023-02-24T22:40:03.117Z,100
2023-02-24T22:45:02.820Z,100
2023-02-24T22:50:02.648Z,100
2023-02-24T22:55:04.323Z,100
2023-02-24T23:00:03.271Z,99.73
2023-02-24T23:05:03.522Z,98.96
2023-02-24T23:10:03.457Z,98.95
2023-02-24T23:15:03.165Z,98.78
2023-02-24T23:20:03.622Z,99.01
2023-02-24T23:25:02.927Z,98.06
2023-02-24T23:30:02.751Z,97.25
2023-02-24T23:35:03.367Z,97.07
2023-02-24T23:40:03.148Z,99.6
2023-02-24T23:45:03.129Z,100
2023-02-24T23:50:02.603Z,99.74
2023-02-24T23:55:03.840Z,98.61
